METAR Data
IDs: Format: Raw Decoded Include TAF

Data at: 0350 UTC 06 Dec 2019

METAR for:K6B9 (Skaneateles Arpt, NY, US)
Text:K6B9 060335Z AUTO 26005KT 10SM OVC040 M02/M05 A3003 RMK AO2
Temperature: -2.0°C ( 28°F)
Dewpoint: -5.0°C ( 23°F) [RH = 80%]
Pressure (altimeter):30.03 inches Hg (1017.0 mb)
Winds:from the W (260 degrees) at 6 MPH (5 knots; 2.6 m/s)
Visibility:10 or more sm (16+ km)
Ceiling:4000 feet AGL
Clouds: overcast cloud deck at 4000 feet AGL
QC Flag:automated observation with no human augmentation
Text:K6B9 060315Z AUTO VRB05KT 10SM FEW023 OVC039 M02/M05 A3003 RMK AO2
Temperature: -2.0°C ( 28°F)
Dewpoint: -5.0°C ( 23°F) [RH = 80%]
Pressure (altimeter):30.03 inches Hg (1017.0 mb)
Winds:variable direction winds at 6 MPH (5 knots; 2.6 m/s)
Visibility:10 or more sm (16+ km)
Ceiling:3900 feet AGL
Clouds: few clouds at 2300 feet AGL, overcast cloud deck at 3900 feet AGL
QC Flag:automated observation with no human augmentation
Text:K6B9 060255Z AUTO VRB04KT 10SM OVC037 M02/M05 A3003 RMK AO2
Temperature: -2.0°C ( 28°F)
Dewpoint: -5.0°C ( 23°F) [RH = 80%]
Pressure (altimeter):30.03 inches Hg (1017.0 mb)
Winds:variable direction winds at 5 MPH (4 knots; 2.1 m/s)
Visibility:10 or more sm (16+ km)
Ceiling:3700 feet AGL
Clouds: overcast cloud deck at 3700 feet AGL
QC Flag:automated observation with no human augmentation
Text:K6B9 060235Z AUTO 27006KT 10SM FEW028 OVC037 M02/M05 A3003 RMK AO2
Temperature: -2.0°C ( 28°F)
Dewpoint: -5.0°C ( 23°F) [RH = 80%]
Pressure (altimeter):30.03 inches Hg (1017.0 mb)
Winds:from the W (270 degrees) at 7 MPH (6 knots; 3.1 m/s)
Visibility:10 or more sm (16+ km)
Ceiling:3700 feet AGL
Clouds: few clouds at 2800 feet AGL, overcast cloud deck at 3700 feet AGL
QC Flag:automated observation with no human augmentation
Text:K6B9 060215Z AUTO 26008KT 10SM BKN029 OVC040 M02/M05 A3002 RMK AO2
Temperature: -2.0°C ( 28°F)
Dewpoint: -5.0°C ( 23°F) [RH = 80%]
Pressure (altimeter):30.02 inches Hg (1016.7 mb)
Winds:from the W (260 degrees) at 9 MPH (8 knots; 4.1 m/s)
Visibility:10 or more sm (16+ km)
Ceiling:2900 feet AGL
Clouds: broken clouds at 2900 feet AGL, overcast cloud deck at 4000 feet AGL
QC Flag:automated observation with no human augmentation
Text:K6B9 060155Z AUTO VRB06G15KT 10SM SCT031 OVC040 M02/M06 A3002 RMK AO2
Temperature: -2.0°C ( 28°F)
Dewpoint: -6.0°C ( 21°F) [RH = 74%]
Pressure (altimeter):30.02 inches Hg (1016.7 mb)
Winds:variable direction winds at 7 MPH (6 knots; 3.1 m/s) gusting to 17 MPH (15 knots; 7.7 m/s)
Visibility:10 or more sm (16+ km)
Ceiling:4000 feet AGL
Clouds: scattered clouds at 3100 feet AGL, overcast cloud deck at 4000 feet AGL
QC Flag:automated observation with no human augmentation
Text:K6B9 060135Z AUTO 27007KT 230V300 10SM BKN035 OVC042 M02/M06 A3002 RMK AO2
Temperature: -2.0°C ( 28°F)
Dewpoint: -6.0°C ( 21°F) [RH = 74%]
Pressure (altimeter):30.02 inches Hg (1016.7 mb)
Winds:from the W (270 degrees) at 8 MPH (7 knots; 3.6 m/s)
Visibility:10 or more sm (16+ km)
Ceiling:3500 feet AGL
Clouds: broken clouds at 3500 feet AGL, overcast cloud deck at 4200 feet AGL
QC Flag:automated observation with no human augmentation
Text:K6B9 060115Z AUTO 26006G16KT 10SM BKN035 OVC043 M02/M05 A3001 RMK AO2
Temperature: -2.0°C ( 28°F)
Dewpoint: -5.0°C ( 23°F) [RH = 80%]
Pressure (altimeter):30.01 inches Hg (1016.3 mb)
Winds:from the W (260 degrees) at 7 MPH (6 knots; 3.1 m/s) gusting to 18 MPH (16 knots; 8.2 m/s)
Visibility:10 or more sm (16+ km)
Ceiling:3500 feet AGL
Clouds: broken clouds at 3500 feet AGL, overcast cloud deck at 4300 feet AGL
QC Flag:automated observation with no human augmentation
Text:K6B9 060055Z AUTO 27007G13KT 10SM FEW026 BKN032 OVC041 M02/M04 A3001 RMK AO2 P0002
Temperature: -2.0°C ( 28°F)
Dewpoint: -4.0°C ( 25°F) [RH = 86%]
Pressure (altimeter):30.01 inches Hg (1016.3 mb)
Winds:from the W (270 degrees) at 8 MPH (7 knots; 3.6 m/s) gusting to 15 MPH (13 knots; 6.7 m/s)
Visibility:10 or more sm (16+ km)
Ceiling:3200 feet AGL
Clouds: few clouds at 2600 feet AGL, broken clouds at 3200 feet AGL, overcast cloud deck at 4100 feet AGL
QC Flag:automated observation with no human augmentation
Text:K6B9 060035Z AUTO 26006KT 10SM BKN028 BKN036 OVC042 M02/M04 A3000 RMK AO2
Temperature: -2.0°C ( 28°F)
Dewpoint: -4.0°C ( 25°F) [RH = 86%]
Pressure (altimeter):30.00 inches Hg (1016.0 mb)
Winds:from the W (260 degrees) at 7 MPH (6 knots; 3.1 m/s)
Visibility:10 or more sm (16+ km)
Ceiling:2800 feet AGL
Clouds: broken clouds at 2800 feet AGL, broken clouds at 3600 feet AGL, overcast cloud deck at 4200 feet AGL
QC Flag:automated observation with no human augmentation
Text:K6B9 060015Z AUTO 26006KT 10SM OVC035 M02/M04 A2999 RMK AO2
Temperature: -2.0°C ( 28°F)
Dewpoint: -4.0°C ( 25°F) [RH = 86%]
Pressure (altimeter):29.99 inches Hg (1015.7 mb)
Winds:from the W (260 degrees) at 7 MPH (6 knots; 3.1 m/s)
Visibility:10 or more sm (16+ km)
Ceiling:3500 feet AGL
Clouds: overcast cloud deck at 3500 feet AGL
QC Flag:automated observation with no human augmentation
Text:K6B9 052355Z AUTO 28007G12KT 10SM BKN034 OVC040 M02/M04 A2998 RMK AO2 P0001
Temperature: -2.0°C ( 28°F)
Dewpoint: -4.0°C ( 25°F) [RH = 86%]
Pressure (altimeter):29.98 inches Hg (1015.3 mb)
Winds:from the W (280 degrees) at 8 MPH (7 knots; 3.6 m/s) gusting to 14 MPH (12 knots; 6.2 m/s)
Visibility:10 or more sm (16+ km)
Ceiling:3400 feet AGL
Clouds: broken clouds at 3400 feet AGL, overcast cloud deck at 4000 feet AGL
QC Flag:automated observation with no human augmentation
Text:K6B9 052335Z AUTO 28006KT 10SM FEW024 SCT029 OVC039 M02/M04 A2997 RMK AO2
Temperature: -2.0°C ( 28°F)
Dewpoint: -4.0°C ( 25°F) [RH = 86%]
Pressure (altimeter):29.97 inches Hg (1015.0 mb)
Winds:from the W (280 degrees) at 7 MPH (6 knots; 3.1 m/s)
Visibility:10 or more sm (16+ km)
Ceiling:3900 feet AGL
Clouds: few clouds at 2400 feet AGL, scattered clouds at 2900 feet AGL, overcast cloud deck at 3900 feet AGL
QC Flag:automated observation with no human augmentation
Text:K6B9 052315Z AUTO VRB05G14KT 10SM SCT016 BKN022 OVC028 M02/M03 A2997 RMK AO2
Temperature: -2.0°C ( 28°F)
Dewpoint: -3.0°C ( 27°F) [RH = 93%]
Pressure (altimeter):29.97 inches Hg (1015.0 mb)
Winds:variable direction winds at 6 MPH (5 knots; 2.6 m/s) gusting to 16 MPH (14 knots; 7.2 m/s)
Visibility:10 or more sm (16+ km)
Ceiling:2200 feet AGL
Clouds: scattered clouds at 1600 feet AGL, broken clouds at 2200 feet AGL, overcast cloud deck at 2800 feet AGL
QC Flag:automated observation with no human augmentation
Text:K6B9 052255Z AUTO 30008G14KT 250V330 9SM -SN FEW010 SCT016 BKN021 M02/M03 A2996 RMK AO2 P0002
Temperature: -2.0°C ( 28°F)
Dewpoint: -3.0°C ( 27°F) [RH = 93%]
Pressure (altimeter):29.96 inches Hg (1014.6 mb)
Winds:from the WNW (300 degrees) at 9 MPH (8 knots; 4.1 m/s) gusting to 16 MPH (14 knots; 7.2 m/s)
Visibility: 9 sm ( 14 km)
Ceiling:2100 feet AGL
Clouds: few clouds at 1000 feet AGL, scattered clouds at 1600 feet AGL, broken clouds at 2100 feet AGL
Weather:-SN (light snow)
QC Flag:automated observation with no human augmentation
Text:K6B9 052235Z AUTO VRB06KT 5SM -SN FEW003 BKN009 OVC022 M02/M02 A2994 RMK AO2
Temperature: -2.0°C ( 28°F)
Dewpoint: -2.0°C ( 28°F) [RH = 100%]
Pressure (altimeter):29.94 inches Hg (1014.0 mb)
Winds:variable direction winds at 7 MPH (6 knots; 3.1 m/s)
Visibility: 5 sm ( 8 km)
Ceiling:900 feet AGL
Clouds: few clouds at 300 feet AGL, broken clouds at 900 feet AGL, overcast cloud deck at 2200 feet AGL
Weather:-SN (light snow)
QC Flag:automated observation with no human augmentation
Text:K6B9 052215Z AUTO 28007KT 230V310 2SM -SN FEW004 BKN007 OVC011 M02/M02 A2993 RMK AO2
Temperature: -2.0°C ( 28°F)
Dewpoint: -2.0°C ( 28°F) [RH = 100%]
Pressure (altimeter):29.93 inches Hg (1013.6 mb)
Winds:from the W (280 degrees) at 8 MPH (7 knots; 3.6 m/s)
Visibility: 2.00 sm ( 3.22 km)
Ceiling:700 feet AGL
Clouds: few clouds at 400 feet AGL, broken clouds at 700 feet AGL, overcast cloud deck at 1100 feet AGL
Weather:-SN (light snow)
QC Flag:automated observation with no human augmentation
Text:K6B9 052155Z AUTO 29008G13KT 250V310 2 1/2SM -SN FEW002 OVC007 M02/M02 A2992 RMK AO2 P0001
Temperature: -2.0°C ( 28°F)
Dewpoint: -2.0°C ( 28°F) [RH = 100%]
Pressure (altimeter):29.92 inches Hg (1013.3 mb)
Winds:from the WNW (290 degrees) at 9 MPH (8 knots; 4.1 m/s) gusting to 15 MPH (13 knots; 6.7 m/s)
Visibility: 2.50 sm ( 4.02 km)
Ceiling:700 feet AGL
Clouds: few clouds at 200 feet AGL, overcast cloud deck at 700 feet AGL
Weather:-SN (light snow)
QC Flag:automated observation with no human augmentation
Text:K6B9 052135Z AUTO 28007G14KT 250V310 1/4SM -SN OVC002 M02/M02 A2990 RMK AO2
Temperature: -2.0°C ( 28°F)
Dewpoint: -2.0°C ( 28°F) [RH = 100%]
Pressure (altimeter):29.90 inches Hg (1012.6 mb)
Winds:from the W (280 degrees) at 8 MPH (7 knots; 3.6 m/s) gusting to 16 MPH (14 knots; 7.2 m/s)
Visibility: 0.25 sm ( 0.40 km)
Ceiling:200 feet AGL
Clouds: overcast cloud deck at 200 feet AGL
Weather:-SN (light snow)
QC Flag:automated observation with no human augmentation
Text:K6B9 052115Z AUTO 29010KT 1/4SM -SN OVC002 M02/M02 A2989 RMK AO2
Temperature: -2.0°C ( 28°F)
Dewpoint: -2.0°C ( 28°F) [RH = 100%]
Pressure (altimeter):29.89 inches Hg (1012.3 mb)
Winds:from the WNW (290 degrees) at 12 MPH (10 knots; 5.1 m/s)
Visibility: 0.25 sm ( 0.40 km)
Ceiling:200 feet AGL
Clouds: overcast cloud deck at 200 feet AGL
Weather:-SN (light snow)
QC Flag:automated observation with no human augmentation
Text:K6B9 052055Z AUTO 30009G14KT 260V320 M1/4SM SN OVC002 M02/M02 A2988 RMK AO2 P0001
Temperature: -2.0°C ( 28°F)
Dewpoint: -2.0°C ( 28°F) [RH = 100%]
Pressure (altimeter):29.88 inches Hg (1011.9 mb)
Winds:from the WNW (300 degrees) at 10 MPH (9 knots; 4.6 m/s) gusting to 16 MPH (14 knots; 7.2 m/s)
Visibility: 0.25 sm ( 0.40 km)
Ceiling:200 feet AGL
Clouds: overcast cloud deck at 200 feet AGL
Weather:SN (moderate snow)
QC Flag:automated observation with no human augmentation
Text:K6B9 052035Z AUTO 30010G20KT 1 3/4SM -SN SCT003 BKN018 OVC023 M01/M03 A2986 RMK AO2
Temperature: -1.0°C ( 30°F)
Dewpoint: -3.0°C ( 27°F) [RH = 86%]
Pressure (altimeter):29.86 inches Hg (1011.3 mb)
Winds:from the WNW (300 degrees) at 12 MPH (10 knots; 5.1 m/s) gusting to 23 MPH (20 knots; 10.3 m/s)
Visibility: 1.75 sm ( 2.82 km)
Ceiling:1800 feet AGL
Clouds: scattered clouds at 300 feet AGL, broken clouds at 1800 feet AGL, overcast cloud deck at 2300 feet AGL
Weather:-SN (light snow)
QC Flag:automated observation with no human augmentation
Text:K6B9 052015Z AUTO 28008G15KT 240V310 10SM SCT021 BKN026 OVC032 M01/M03 A2984 RMK AO2
Temperature: -1.0°C ( 30°F)
Dewpoint: -3.0°C ( 27°F) [RH = 86%]
Pressure (altimeter):29.84 inches Hg (1010.6 mb)
Winds:from the W (280 degrees) at 9 MPH (8 knots; 4.1 m/s) gusting to 17 MPH (15 knots; 7.7 m/s)
Visibility:10 or more sm (16+ km)
Ceiling:2600 feet AGL
Clouds: scattered clouds at 2100 feet AGL, broken clouds at 2600 feet AGL, overcast cloud deck at 3200 feet AGL
QC Flag:automated observation with no human augmentation
Text:K6B9 051955Z AUTO VRB07G12KT 10SM BKN020 OVC026 M02/M03 A2984 RMK AO2 P0001
Temperature: -2.0°C ( 28°F)
Dewpoint: -3.0°C ( 27°F) [RH = 93%]
Pressure (altimeter):29.84 inches Hg (1010.6 mb)
Winds:variable direction winds at 8 MPH (7 knots; 3.6 m/s) gusting to 14 MPH (12 knots; 6.2 m/s)
Visibility:10 or more sm (16+ km)
Ceiling:2000 feet AGL
Clouds: broken clouds at 2000 feet AGL, overcast cloud deck at 2600 feet AGL
QC Flag:automated observation with no human augmentation
Text:K6B9 051935Z AUTO 28007G15KT 240V320 3SM -SN FEW003 FEW018 BKN024 M02/M03 A2983 RMK AO2
Temperature: -2.0°C ( 28°F)
Dewpoint: -3.0°C ( 27°F) [RH = 93%]
Pressure (altimeter):29.83 inches Hg (1010.2 mb)
Winds:from the W (280 degrees) at 8 MPH (7 knots; 3.6 m/s) gusting to 17 MPH (15 knots; 7.7 m/s)
Visibility: 3 sm ( 5 km)
Ceiling:2400 feet AGL
Clouds: few clouds at 300 feet AGL, few clouds at 1800 feet AGL, broken clouds at 2400 feet AGL
Weather:-SN (light snow)
QC Flag:automated observation with no human augmentation
Text:K6B9 051915Z AUTO VRB04G11KT 1 3/4SM -SN SCT018 BKN022 OVC027 M02/M03 A2982 RMK AO2
Temperature: -2.0°C ( 28°F)
Dewpoint: -3.0°C ( 27°F) [RH = 93%]
Pressure (altimeter):29.82 inches Hg (1009.9 mb)
Winds:variable direction winds at 5 MPH (4 knots; 2.1 m/s) gusting to 13 MPH (11 knots; 5.7 m/s)
Visibility: 1.75 sm ( 2.82 km)
Ceiling:2200 feet AGL
Clouds: scattered clouds at 1800 feet AGL, broken clouds at 2200 feet AGL, overcast cloud deck at 2700 feet AGL
Weather:-SN (light snow)
QC Flag:automated observation with no human augmentation
Text:K6B9 051855Z AUTO VRB04G14KT 4SM -UP SCT021 BKN025 OVC030 M01/M04 A2982 RMK AO2 P0002
Temperature: -1.0°C ( 30°F)
Dewpoint: -4.0°C ( 25°F) [RH = 80%]
Pressure (altimeter):29.82 inches Hg (1009.9 mb)
Winds:variable direction winds at 5 MPH (4 knots; 2.1 m/s) gusting to 16 MPH (14 knots; 7.2 m/s)
Visibility: 4 sm ( 6 km)
Ceiling:2500 feet AGL
Clouds: scattered clouds at 2100 feet AGL, broken clouds at 2500 feet AGL, overcast cloud deck at 3000 feet AGL
Weather:UP (unknown precipitation)
QC Flag:automated observation with no human augmentation
Text:K6B9 051835Z AUTO 30007G12KT 10SM SCT020 BKN026 OVC047 M01/M04 A2981 RMK AO2
Temperature: -1.0°C ( 30°F)
Dewpoint: -4.0°C ( 25°F) [RH = 80%]
Pressure (altimeter):29.81 inches Hg (1009.6 mb)
Winds:from the WNW (300 degrees) at 8 MPH (7 knots; 3.6 m/s) gusting to 14 MPH (12 knots; 6.2 m/s)
Visibility:10 or more sm (16+ km)
Ceiling:2600 feet AGL
Clouds: scattered clouds at 2000 feet AGL, broken clouds at 2600 feet AGL, overcast cloud deck at 4700 feet AGL
QC Flag:automated observation with no human augmentation
Text:K6B9 051815Z AUTO 29007G13KT 260V340 10SM FEW018 SCT026 BKN048 M01/M04 A2980 RMK AO2
Temperature: -1.0°C ( 30°F)
Dewpoint: -4.0°C ( 25°F) [RH = 80%]
Pressure (altimeter):29.80 inches Hg (1009.2 mb)
Winds:from the WNW (290 degrees) at 8 MPH (7 knots; 3.6 m/s) gusting to 15 MPH (13 knots; 6.7 m/s)
Visibility:10 or more sm (16+ km)
Ceiling:4800 feet AGL
Clouds: few clouds at 1800 feet AGL, scattered clouds at 2600 feet AGL, broken clouds at 4800 feet AGL
QC Flag:automated observation with no human augmentation
Text:K6B9 051755Z AUTO VRB05G19KT 10SM FEW017 SCT030 BKN049 M01/M04 A2980 RMK AO2
Temperature: -1.0°C ( 30°F)
Dewpoint: -4.0°C ( 25°F) [RH = 80%]
Pressure (altimeter):29.80 inches Hg (1009.2 mb)
Winds:variable direction winds at 6 MPH (5 knots; 2.6 m/s) gusting to 22 MPH (19 knots; 9.8 m/s)
Visibility:10 or more sm (16+ km)
Ceiling:4900 feet AGL
Clouds: few clouds at 1700 feet AGL, scattered clouds at 3000 feet AGL, broken clouds at 4900 feet AGL
QC Flag:automated observation with no human augmentation
Text:K6B9 051735Z AUTO 31011G19KT 9SM -SN SCT015 SCT020 BKN034 M01/M03 A2979 RMK AO2
Temperature: -1.0°C ( 30°F)
Dewpoint: -3.0°C ( 27°F) [RH = 86%]
Pressure (altimeter):29.79 inches Hg (1008.9 mb)
Winds:from the NW (310 degrees) at 13 MPH (11 knots; 5.7 m/s) gusting to 22 MPH (19 knots; 9.8 m/s)
Visibility: 9 sm ( 14 km)
Ceiling:3400 feet AGL
Clouds: scattered clouds at 1500 feet AGL, scattered clouds at 2000 feet AGL, broken clouds at 3400 feet AGL
Weather:-SN (light snow)
QC Flag:automated observation with no human augmentation
Text:K6B9 051715Z AUTO 31010G19KT 1 1/2SM -SN SCT003 BKN006 BKN014 M01/M02 A2979 RMK AO2 VIS 1/2V5
Temperature: -1.0°C ( 30°F)
Dewpoint: -2.0°C ( 28°F) [RH = 93%]
Pressure (altimeter):29.79 inches Hg (1008.9 mb)
Winds:from the NW (310 degrees) at 12 MPH (10 knots; 5.1 m/s) gusting to 22 MPH (19 knots; 9.8 m/s)
Visibility: 1.50 sm ( 2.41 km)
Ceiling:600 feet AGL
Clouds: scattered clouds at 300 feet AGL, broken clouds at 600 feet AGL, broken clouds at 1400 feet AGL
Weather:-SN (light snow)
QC Flag:automated observation with no human augmentation
Text:K6B9 051655Z AUTO VRB06G12KT 1/4SM -SN BKN004 OVC008 M01/M02 A2979 RMK AO2
Temperature: -1.0°C ( 30°F)
Dewpoint: -2.0°C ( 28°F) [RH = 93%]
Pressure (altimeter):29.79 inches Hg (1008.9 mb)
Winds:variable direction winds at 7 MPH (6 knots; 3.1 m/s) gusting to 14 MPH (12 knots; 6.2 m/s)
Visibility: 0.25 sm ( 0.40 km)
Ceiling:400 feet AGL
Clouds: broken clouds at 400 feet AGL, overcast cloud deck at 800 feet AGL
Weather:-SN (light snow)
QC Flag:automated observation with no human augmentation
Text:K6B9 051635Z AUTO 29006G12KT 4SM -SN BKN005 BKN008 M01/M01 A2978 RMK AO2
Temperature: -1.0°C ( 30°F)
Dewpoint: -1.0°C ( 30°F) [RH = 100%]
Pressure (altimeter):29.78 inches Hg (1008.5 mb)
Winds:from the WNW (290 degrees) at 7 MPH (6 knots; 3.1 m/s) gusting to 14 MPH (12 knots; 6.2 m/s)
Visibility: 4 sm ( 6 km)
Ceiling:500 feet AGL
Clouds: broken clouds at 500 feet AGL, broken clouds at 800 feet AGL
Weather:-SN (light snow)
QC Flag:automated observation with no human augmentation
Text:K6B9 051615Z AUTO 28009KT 240V320 1/4SM SN BKN002 OVC008 M01/M02 A2977 RMK AO2
Temperature: -1.0°C ( 30°F)
Dewpoint: -2.0°C ( 28°F) [RH = 93%]
Pressure (altimeter):29.77 inches Hg (1008.2 mb)
Winds:from the W (280 degrees) at 10 MPH (9 knots; 4.6 m/s)
Visibility: 0.25 sm ( 0.40 km)
Ceiling:200 feet AGL
Clouds: broken clouds at 200 feet AGL, overcast cloud deck at 800 feet AGL
Weather:SN (moderate snow)
QC Flag:automated observation with no human augmentation
Text:K6B9 051555Z AUTO 26009G16KT 240V320 4SM -SN BKN009 OVC013 M01/M02 A2976 RMK AO2
Temperature: -1.0°C ( 30°F)
Dewpoint: -2.0°C ( 28°F) [RH = 93%]
Pressure (altimeter):29.76 inches Hg (1007.9 mb)
Winds:from the W (260 degrees) at 10 MPH (9 knots; 4.6 m/s) gusting to 18 MPH (16 knots; 8.2 m/s)
Visibility: 4 sm ( 6 km)
Ceiling:900 feet AGL
Clouds: broken clouds at 900 feet AGL, overcast cloud deck at 1300 feet AGL
Weather:-SN (light snow)
QC Flag:automated observation with no human augmentation